Time;durP1;ratioP1;P1;durP2;ratioP2;P2;SDS_P1;SDS_P2;PMS_P1;PMS_P2;Temp;Humidity;BMP_temperature;BMP_pressure;BME280_temperature;BME280_humidity;BME280_pressure;Samples;Min_cycle;Max_cycle;Signal;HPM_P1;HPM_P2
2022/02/28 00:00:27;;;;;;;;;;;;;;;;;;5075238;28;19939;-83
2022/02/28 00:02:53;;;;;;;;;;;;;;;;;;5075153;28;19924;-83
2022/02/28 00:05:18;;;;;;;;;;;;;;;;;;5074788;28;19920;-83
2022/02/28 00:07:44;;;;;;;;;;;;;;;;;;5075056;28;20015;-84
2022/02/28 00:10:10;;;;;;;;;;;;;;;;;;5075478;28;19924;-84
2022/02/28 00:12:35;;;;;;;;;;;;;;;;;;5075202;28;19917;-84
2022/02/28 00:15:02;;;;;;;;;;;;;;;;;;5075011;28;19985;-84
2022/02/28 00:17:28;;;;;;;;;;;;;;;;;;5073599;28;19917;-84
2022/02/28 00:19:53;;;;;;;;;;;;;;;;;;5073550;28;20386;-84
2022/02/28 00:22:19;;;;;;;;;;;;;;;;;;5074868;28;20365;-85
2022/02/28 00:24:44;;;;;;;;;;;;;;;;;;5058106;28;19956;-84
2022/02/28 00:27:09;;;;;;;;;;;;;;;;;;5072817;28;20003;-84
2022/02/28 00:29:35;;;;;;;;;;;;;;;;;;5074015;28;19924;-84
2022/02/28 00:32:00;;;;;;;;;;;;;;;;;;5070546;28;20372;-83
2022/02/28 00:34:26;;;;;;;;;;;;;;;;;;5054595;28;19963;-83
2022/02/28 00:36:51;;;;;;;;;;;;;;;;;;5065498;28;19978;-84
2022/02/28 00:39:16;;;;;;;;;;;;;;;;;;5074252;28;19951;-83
2022/02/28 00:41:42;;;;;;;;;;;;;;;;;;5074540;28;20279;-84
2022/02/28 00:44:07;;;;;;;;;;;;;;;;;;5074293;28;19919;-85
2022/02/28 00:46:33;;;;;;;;;;;;;;;;;;5060614;28;20308;-84
2022/02/28 00:48:58;;;;;;;;;;;;;;;;;;5054393;28;20258;-84
2022/02/28 00:51:24;;;;;;;;;;;;;;;;;;5054122;28;19916;-84
2022/02/28 00:53:49;;;;;;;;;;;;;;;;;;5054246;28;19971;-85
2022/02/28 00:56:15;;;;;;;;;;;;;;;;;;5054247;28;20365;-84
2022/02/28 00:58:40;;;;;;;;;;;;;;;;;;5054131;28;19928;-85
2022/02/28 01:01:06;;;;;;;;;;;;;;;;;;5054105;28;19917;-85
2022/02/28 01:03:31;;;;;;;;;;;;;;;;;;5053997;28;19928;-84
2022/02/28 01:05:57;;;;;;;;;;;;;;;;;;5053981;28;20395;-85
2022/02/28 01:08:22;;;;;;;;;;;;;;;;;;5054141;28;19939;-84
2022/02/28 01:10:48;;;;;;;;;;;;;;;;;;5054080;28;19962;-85
2022/02/28 01:13:14;;;;;;;;;;;;;;;;;;5054028;28;19955;-85
2022/02/28 01:15:39;;;;;;;;;;;;;;;;;;5053864;28;20047;-84
2022/02/28 01:18:05;;;;;;;;;;;;;;;;;;5067158;28;20357;-85
2022/02/28 01:20:31;;;;;;;;;;;;;;;;;;5073908;28;19921;-85
2022/02/28 01:22:56;;;;;;;;;;;;;;;;;;5073718;28;20015;-85
2022/02/28 01:25:22;;;;;;;;;;;;;;;;;;5073736;28;20292;-85
2022/02/28 01:27:47;;;;;;;;;;;;;;;;;;5073724;28;19916;-85
2022/02/28 01:30:16;;;;;;;;;;;;;;;;;;5073790;28;19987;-85
2022/02/28 01:32:41;;;;;;;;;;;;;;;;;;5073753;28;20023;-85
2022/02/28 01:35:07;;;;;;;;;;;;;;;;;;5071146;28;19956;-85
2022/02/28 01:37:33;;;;;;;;;;;;;;;;;;5053667;28;19916;-85
2022/02/28 01:39:58;;;;;;;;;;;;;;;;;;5053497;28;19923;-86
2022/02/28 01:42:24;;;;;;;;;;;;;;;;;;5053713;28;19917;-83
2022/02/28 01:44:49;;;;;;;;;;;;;;;;;;5053510;28;19917;-85
2022/02/28 01:47:15;;;;;;;;;;;;;;;;;;5053419;28;19924;-84
2022/02/28 01:49:41;;;;;;;;;;;;;;;;;;5056806;28;20349;-84
2022/02/28 01:52:06;;;;;;;;;;;;;;;;;;5073515;28;19921;-85
2022/02/28 01:54:32;;;;;;;;;;;;;;;;;;5073510;28;20257;-85
2022/02/28 01:56:57;;;;;;;;;;;;;;;;;;5073486;28;20265;-84
2022/02/28 01:59:23;;;;;;;;;;;;;;;;;;5073324;28;19916;-83
2022/02/28 02:01:48;;;;;;;;;;;;;;;;;;5073628;28;20373;-84
2022/02/28 02:04:14;;;;;;;;;;;;;;;;;;5073260;28;19956;-82
2022/02/28 02:06:39;;;;;;;;;;;;;;;;;;5073410;28;19955;-85
2022/02/28 02:09:05;;;;;;;;;;;;;;;;;;5073512;28;20380;-82
2022/02/28 02:11:31;;;;;;;;;;;;;;;;;;5073266;28;19920;-82
2022/02/28 02:13:56;;;;;;;;;;;;;;;;;;5073265;28;20376;-84
2022/02/28 02:16:22;;;;;;;;;;;;;;;;;;5073361;28;19916;-83
2022/02/28 02:18:47;;;;;;;;;;;;;;;;;;5073374;28;19923;-82
2022/02/28 02:21:13;;;;;;;;;;;;;;;;;;5073307;28;19962;-83
2022/02/28 02:23:39;;;;;;;;;;;;;;;;;;5073137;28;19951;-82
2022/02/28 02:26:05;;;;;;;;;;;;;;;;;;5073218;28;19917;-82
2022/02/28 02:28:30;;;;;;;;;;;;;;;;;;5073184;28;19920;-83
2022/02/28 02:30:56;;;;;;;;;;;;;;;;;;5073496;28;19920;-80
2022/02/28 02:33:22;;;;;;;;;;;;;;;;;;5074258;28;19924;-81
2022/02/28 02:35:52;;;;;;;;;;;;;;;;;;5074304;28;20416;-81
2022/02/28 02:38:17;;;;;;;;;;;;;;;;;;5073907;28;19916;-81
2022/02/28 02:40:43;;;;;;;;;;;;;;;;;;5073933;28;20284;-82
2022/02/28 02:43:08;;;;;;;;;;;;;;;;;;5073329;28;20296;-81
2022/02/28 02:45:34;;;;;;;;;;;;;;;;;;5072848;28;19956;-81
2022/02/28 02:48:09;;;;;;;;;;;;;;;;;;5073012;28;20335;-81
2022/02/28 02:50:34;;;;;;;;;;;;;;;;;;5072904;28;19916;-81
2022/02/28 02:52:59;;;;;;;;;;;;;;;;;;5076243;28;19927;-81
2022/02/28 02:55:25;;;;;;;;;;;;;;;;;;5076385;28;19913;-80
2022/02/28 02:57:50;;;;;;;;;;;;;;;;;;5076419;28;19928;-80
2022/02/28 03:00:16;;;;;;;;;;;;;;;;;;5076685;28;20372;-80
2022/02/28 03:02:41;;;;;;;;;;;;;;;;;;5076535;28;19922;-81
2022/02/28 03:05:07;;;;;;;;;;;;;;;;;;5075104;28;20011;-80
2022/02/28 03:07:32;;;;;;;;;;;;;;;;;;5076361;28;20011;-80
2022/02/28 03:09:58;;;;;;;;;;;;;;;;;;5076420;28;19938;-81
2022/02/28 03:12:23;;;;;;;;;;;;;;;;;;5072267;28;19920;-80
2022/02/28 03:14:49;;;;;;;;;;;;;;;;;;5060931;28;19947;-81
2022/02/28 03:17:14;;;;;;;;;;;;;;;;;;5057699;28;20324;-82
2022/02/28 03:19:39;;;;;;;;;;;;;;;;;;5055873;28;20011;-80
2022/02/28 03:22:05;;;;;;;;;;;;;;;;;;5055969;28;20285;-80
2022/02/28 03:24:30;;;;;;;;;;;;;;;;;;5055951;28;20300;-81
2022/02/28 03:26:56;;;;;;;;;;;;;;;;;;5074375;28;20001;-80
2022/02/28 03:29:21;;;;;;;;;;;;;;;;;;5076029;28;20013;-81
2022/02/28 03:31:47;;;;;;;;;;;;;;;;;;5075853;28;19916;-81
2022/02/28 03:34:12;;;;;;;;;;;;;;;;;;5075729;28;19923;-81
2022/02/28 03:36:38;;;;;;;;;;;;;;;;;;5060534;28;19968;-81
2022/02/28 03:39:03;;;;;;;;;;;;;;;;;;5055689;28;19920;-81
2022/02/28 03:41:28;;;;;;;;;;;;;;;;;;5055774;28;19923;-81
2022/02/28 03:43:54;;;;;;;;;;;;;;;;;;5055610;28;20387;-81
2022/02/28 03:46:19;;;;;;;;;;;;;;;;;;5055506;28;20297;-81
2022/02/28 03:48:45;;;;;;;;;;;;;;;;;;5055724;28;20011;-81
2022/02/28 03:51:11;;;;;;;;;;;;;;;;;;5055489;28;20280;-81
2022/02/28 03:53:36;;;;;;;;;;;;;;;;;;5060191;28;19924;-81
2022/02/28 03:56:02;;;;;;;;;;;;;;;;;;5075130;28;20273;-81
2022/02/28 03:58:27;;;;;;;;;;;;;;;;;;5075390;28;19916;-81
2022/02/28 04:00:53;;;;;;;;;;;;;;;;;;5075225;28;19916;-80
2022/02/28 04:03:18;;;;;;;;;;;;;;;;;;5073753;28;20007;-81
2022/02/28 04:05:43;;;;;;;;;;;;;;;;;;5075151;28;19917;-81
2022/02/28 04:08:09;;;;;;;;;;;;;;;;;;5075643;28;20007;-80
2022/02/28 04:10:34;;;;;;;;;;;;;;;;;;5075090;28;20299;-81
2022/02/28 04:13:00;;;;;;;;;;;;;;;;;;5075007;28;19920;-82
2022/02/28 04:15:25;;;;;;;;;;;;;;;;;;5071580;28;19917;-82
2022/02/28 04:17:51;;;;;;;;;;;;;;;;;;5054859;28;19948;-82
2022/02/28 04:20:16;;;;;;;;;;;;;;;;;;5054853;28;19996;-81
2022/02/28 04:22:42;;;;;;;;;;;;;;;;;;5054801;28;19943;-83
2022/02/28 04:25:08;;;;;;;;;;;;;;;;;;5054987;28;19917;-81
2022/02/28 04:27:33;;;;;;;;;;;;;;;;;;5054700;28;19923;-81
2022/02/28 04:29:59;;;;;;;;;;;;;;;;;;5054780;28;19917;-80
2022/02/28 04:32:24;;;;;;;;;;;;;;;;;;5054589;28;19917;-81
2022/02/28 04:34:50;;;;;;;;;;;;;;;;;;5054650;28;19928;-82
2022/02/28 04:37:15;;;;;;;;;;;;;;;;;;5054509;28;19916;-80
2022/02/28 04:39:41;;;;;;;;;;;;;;;;;;5054420;28;19924;-81
2022/02/28 04:42:07;;;;;;;;;;;;;;;;;;5053225;28;20300;-82
2022/02/28 04:44:32;;;;;;;;;;;;;;;;;;5054652;28;20005;-81
2022/02/28 04:46:58;;;;;;;;;;;;;;;;;;5054091;28;20019;-80
2022/02/28 04:49:23;;;;;;;;;;;;;;;;;;5054252;28;19924;-80
2022/02/28 04:51:49;;;;;;;;;;;;;;;;;;5056501;28;19925;-82
2022/02/28 04:54:14;;;;;;;;;;;;;;;;;;5069528;28;20427;-80
2022/02/28 04:56:39;;;;;;;;;;;;;;;;;;5054508;28;20019;-80
2022/02/28 04:59:05;;;;;;;;;;;;;;;;;;5054370;28;19953;-80
2022/02/28 05:01:30;;;;;;;;;;;;;;;;;;5056614;28;19924;-81
2022/02/28 05:03:56;;;;;;;;;;;;;;;;;;5064772;28;19921;-81
2022/02/28 05:06:22;;;;;;;;;;;;;;;;;;5062645;28;19921;-80
2022/02/28 05:08:47;;;;;;;;;;;;;;;;;;5057119;28;19920;-80
2022/02/28 05:11:12;;;;;;;;;;;;;;;;;;5054365;28;19917;-80
2022/02/28 05:13:39;;;;;;;;;;;;;;;;;;5061296;28;19935;-81
2022/02/28 05:16:05;;;;;;;;;;;;;;;;;;5063262;28;19920;-81
2022/02/28 05:18:30;;;;;;;;;;;;;;;;;;5063990;28;19947;-81
2022/02/28 05:20:55;;;;;;;;;;;;;;;;;;5063103;28;19970;-80
2022/02/28 05:23:21;;;;;;;;;;;;;;;;;;5056146;28;19921;-80
2022/02/28 05:25:46;;;;;;;;;;;;;;;;;;5061146;28;19920;-81
2022/02/28 05:28:12;;;;;;;;;;;;;;;;;;5060657;28;19971;-78
2022/02/28 05:30:37;;;;;;;;;;;;;;;;;;5073736;28;19916;-81
2022/02/28 05:33:03;;;;;;;;;;;;;;;;;;5073678;28;19920;-81
2022/02/28 05:35:28;;;;;;;;;;;;;;;;;;5073649;28;20011;-80
2022/02/28 05:37:54;;;;;;;;;;;;;;;;;;5073842;28;19921;-82
2022/02/28 05:40:20;;;;;;;;;;;;;;;;;;5073796;28;19924;-80
2022/02/28 05:42:45;;;;;;;;;;;;;;;;;;5062991;28;19960;-77
2022/02/28 05:45:11;;;;;;;;;;;;;;;;;;5055469;28;19964;-79
2022/02/28 05:47:36;;;;;;;;;;;;;;;;;;5073462;28;20005;-80
2022/02/28 05:50:02;;;;;;;;;;;;;;;;;;5063687;28;19964;-80
2022/02/28 05:52:27;;;;;;;;;;;;;;;;;;5053369;28;19935;-79
2022/02/28 05:54:53;;;;;;;;;;;;;;;;;;5069888;28;19917;-80
2022/02/28 05:57:18;;;;;;;;;;;;;;;;;;5059238;28;19924;-81
2022/02/28 05:59:44;;;;;;;;;;;;;;;;;;5053927;28;19921;-81
2022/02/28 06:02:09;;;;;;;;;;;;;;;;;;5057550;28;19917;-81
2022/02/28 06:04:34;;;;;;;;;;;;;;;;;;5055970;28;20396;-79
2022/02/28 06:07:00;;;;;;;;;;;;;;;;;;5068436;28;19927;-79
2022/02/28 06:09:25;;;;;;;;;;;;;;;;;;5072006;28;19919;-79
2022/02/28 06:11:51;;;;;;;;;;;;;;;;;;5073242;28;20419;-80
2022/02/28 06:14:16;;;;;;;;;;;;;;;;;;5073314;28;19917;-79
2022/02/28 06:16:42;;;;;;;;;;;;;;;;;;5058795;28;19916;-80
2022/02/28 06:19:07;;;;;;;;;;;;;;;;;;5064780;28;19963;-78
2022/02/28 06:21:33;;;;;;;;;;;;;;;;;;5054156;28;20407;-79
2022/02/28 06:23:58;;;;;;;;;;;;;;;;;;5053700;28;19921;-79
2022/02/28 06:26:24;;;;;;;;;;;;;;;;;;5053812;28;19917;-79
2022/02/28 06:28:49;;;;;;;;;;;;;;;;;;5062903;28;19920;-79
2022/02/28 06:31:14;;;;;;;;;;;;;;;;;;5059717;28;19928;-79
2022/02/28 06:33:40;;;;;;;;;;;;;;;;;;5064063;28;19924;-79
2022/02/28 06:36:05;;;;;;;;;;;;;;;;;;5058136;28;19920;-81
2022/02/28 06:38:31;;;;;;;;;;;;;;;;;;5056695;28;19917;-81
2022/02/28 06:40:56;;;;;;;;;;;;;;;;;;5060804;28;19974;-80
2022/02/28 06:43:24;;;;;;;;;;;;;;;;;;5056550;28;19916;-80
2022/02/28 06:45:50;;;;;;;;;;;;;;;;;;5063339;28;19936;-80
2022/02/28 06:48:15;;;;;;;;;;;;;;;;;;5060144;28;19927;-81
2022/02/28 06:50:42;;;;;;;;;;;;;;;;;;5060030;28;20302;-80
2022/02/28 06:53:07;;;;;;;;;;;;;;;;;;5056689;28;20368;-79
2022/02/28 06:55:33;;;;;;;;;;;;;;;;;;5061362;28;19935;-78
2022/02/28 06:57:58;;;;;;;;;;;;;;;;;;5059133;28;19927;-79
2022/02/28 07:00:24;;;;;;;;;;;;;;;;;;5057683;28;20016;-79
2022/02/28 07:02:49;;;;;;;;;;;;;;;;;;5056321;28;20323;-79
2022/02/28 07:05:15;;;;;;;;;;;;;;;;;;5056149;28;19921;-81
2022/02/28 07:07:40;;;;;;;;;;;;;;;;;;5056068;28;20354;-78
2022/02/28 07:10:06;;;;;;;;;;;;;;;;;;5056253;28;19917;-79
2022/02/28 07:12:32;;;;;;;;;;;;;;;;;;5067187;28;19954;-80
2022/02/28 07:14:57;;;;;;;;;;;;;;;;;;5064695;28;19972;-79
2022/02/28 07:17:23;;;;;;;;;;;;;;;;;;5056107;28;20384;-80
2022/02/28 07:19:49;;;;;;;;;;;;;;;;;;5054723;28;19939;-81
2022/02/28 07:22:15;;;;;;;;;;;;;;;;;;5056747;28;19916;-80
2022/02/28 07:24:40;;;;;;;;;;;;;;;;;;5057833;28;19925;-81
2022/02/28 07:27:05;;;;;;;;;;;;;;;;;;5059145;28;19925;-80
2022/02/28 07:29:31;;;;;;;;;;;;;;;;;;5059046;28;19921;-79
2022/02/28 07:31:56;;;;;;;;;;;;;;;;;;5064225;28;20357;-79
2022/02/28 07:34:22;;;;;;;;;;;;;;;;;;5064629;28;20007;-79
2022/02/28 07:36:47;;;;;;;;;;;;;;;;;;5057224;28;19932;-80
2022/02/28 07:39:13;;;;;;;;;;;;;;;;;;5058502;28;20027;-81
2022/02/28 07:41:38;;;;;;;;;;;;;;;;;;5058911;28;20026;-80
2022/02/28 07:44:04;;;;;;;;;;;;;;;;;;5062487;28;19920;-81
2022/02/28 07:46:30;;;;;;;;;;;;;;;;;;5056553;28;19974;-81
2022/02/28 07:48:55;;;;;;;;;;;;;;;;;;5060024;28;19921;-81
2022/02/28 07:51:21;;;;;;;;;;;;;;;;;;5065970;28;19932;-80
2022/02/28 07:53:46;;;;;;;;;;;;;;;;;;5056028;28;19920;-82
2022/02/28 07:56:12;;;;;;;;;;;;;;;;;;5064614;28;19920;-81
2022/02/28 07:58:37;;;;;;;;;;;;;;;;;;5060991;28;19928;-81
2022/02/28 08:01:03;;;;;;;;;;;;;;;;;;5063798;28;19924;-80
2022/02/28 08:03:28;;;;;;;;;;;;;;;;;;5058665;28;19924;-80
2022/02/28 08:05:54;;;;;;;;;;;;;;;;;;5059651;28;19920;-82
2022/02/28 08:08:19;;;;;;;;;;;;;;;;;;5057308;28;19923;-82
2022/02/28 08:10:44;;;;;;;;;;;;;;;;;;5067435;28;19974;-81
2022/02/28 08:13:13;;;;;;;;;;;;;;;;;;5065951;28;20017;-81
2022/02/28 08:15:39;;;;;;;;;;;;;;;;;;5063702;28;19987;-82
2022/02/28 08:18:05;;;;;;;;;;;;;;;;;;5063364;28;20130;-80
2022/02/28 08:20:30;;;;;;;;;;;;;;;;;;5056438;28;20470;-83
2022/02/28 08:22:56;;;;;;;;;;;;;;;;;;5057316;28;19927;-81
2022/02/28 08:25:21;;;;;;;;;;;;;;;;;;5055915;28;19917;-80
2022/02/28 08:27:47;;;;;;;;;;;;;;;;;;5070453;28;19920;-82
2022/02/28 08:30:12;;;;;;;;;;;;;;;;;;5057219;28;19921;-82
2022/02/28 08:32:38;;;;;;;;;;;;;;;;;;5055104;28;19927;-79
2022/02/28 08:35:04;;;;;;;;;;;;;;;;;;5056895;28;19920;-80
2022/02/28 08:37:29;;;;;;;;;;;;;;;;;;5057454;28;20012;-81
2022/02/28 08:39:54;;;;;;;;;;;;;;;;;;5061485;28;19920;-81
2022/02/28 08:42:20;;;;;;;;;;;;;;;;;;5062083;28;19924;-80
2022/02/28 08:44:46;;;;;;;;;;;;;;;;;;5057130;28;20004;-80
2022/02/28 08:47:11;;;;;;;;;;;;;;;;;;5058064;28;19927;-81
2022/02/28 08:49:37;;;;;;;;;;;;;;;;;;5055242;28;19932;-80
2022/02/28 08:52:04;;;;;;;;;;;;;;;;;;5062768;28;19924;-80
2022/02/28 08:54:30;;;;;;;;;;;;;;;;;;5058674;28;19920;-80
2022/02/28 08:56:55;;;;;;;;;;;;;;;;;;5064930;28;19920;-79
2022/02/28 08:59:21;;;;;;;;;;;;;;;;;;5057953;28;21417;-80
2022/02/28 09:01:46;;;;;;;;;;;;;;;;;;5060544;28;19927;-80
2022/02/28 09:04:11;;;;;;;;;;;;;;;;;;5060398;28;19927;-83
2022/02/28 09:06:37;;;;;;;;;;;;;;;;;;5054843;28;19932;-80
2022/02/28 09:09:02;;;;;;;;;;;;;;;;;;5061692;28;19932;-82
2022/02/28 09:11:28;;;;;;;;;;;;;;;;;;5070218;28;19924;-82
2022/02/28 09:13:53;;;;;;;;;;;;;;;;;;5056289;28;19920;-78
2022/02/28 09:16:21;;;;;;;;;;;;;;;;;;5065662;28;19923;-83
2022/02/28 09:18:46;;;;;;;;;;;;;;;;;;5057764;28;20364;-82
2022/02/28 09:21:11;;;;;;;;;;;;;;;;;;5065033;28;19921;-81
2022/02/28 09:23:39;;;;;;;;;;;;;;;;;;5052953;28;20261;-82
2022/02/28 09:26:05;;;;;;;;;;;;;;;;;;5053710;28;19924;-80
2022/02/28 09:28:30;;;;;;;;;;;;;;;;;;5052983;28;19932;-81
2022/02/28 09:30:56;;;;;;;;;;;;;;;;;;5065624;28;19917;-80
2022/02/28 09:33:21;;;;;;;;;;;;;;;;;;5065809;28;19927;-81
2022/02/28 09:35:48;;;;;;;;;;;;;;;;;;5065794;28;19916;-80
2022/02/28 09:38:14;;;;;;;;;;;;;;;;;;5054168;28;19939;-82
2022/02/28 09:40:41;;;;;;;;;;;;;;;;;;5054855;28;19921;-82
2022/02/28 09:43:07;;;;;;;;;;;;;;;;;;5055296;28;19943;-82
2022/02/28 09:45:32;;;;;;;;;;;;;;;;;;5065773;28;20353;-81
2022/02/28 09:47:58;;;;;;;;;;;;;;;;;;5066847;28;20320;-80
2022/02/28 09:50:24;;;;;;;;;;;;;;;;;;5073517;28;19939;-83
2022/02/28 09:52:49;;;;;;;;;;;;;;;;;;5055362;28;19927;-82
2022/02/28 09:55:15;;;;;;;;;;;;;;;;;;5059709;28;19921;-81
2022/02/28 09:57:45;;;;;;;;;;;;;;;;;;5065728;28;19924;-81
2022/02/28 10:00:11;;;;;;;;;;;;;;;;;;5057073;28;20007;-81
2022/02/28 10:02:36;;;;;;;;;;;;;;;;;;5072235;28;20287;-80
2022/02/28 10:05:03;;;;;;;;;;;;;;;;;;5061514;28;19948;-81
2022/02/28 10:07:28;;;;;;;;;;;;;;;;;;5063865;28;20383;-82
2022/02/28 10:10:07;;;;;;;;;;;;;;;;;;5067361;28;19924;-82
2022/02/28 10:12:33;;;;;;;;;;;;;;;;;;5064310;28;19982;-81
2022/02/28 10:15:02;;;;;;;;;;;;;;;;;;5060671;28;20373;-82
2022/02/28 10:17:39;;;;;;;;;;;;;;;;;;5076570;28;19923;-82
2022/02/28 10:20:12;;;;;;;;;;;;;;;;;;5059608;28;19921;-83
2022/02/28 10:22:38;;;;;;;;;;;;;;;;;;5070466;28;19924;-84
2022/02/28 10:25:04;;;;;;;;;;;;;;;;;;5066620;28;19920;-83
2022/02/28 10:27:29;;;;;;;;;;;;;;;;;;5059669;28;20338;-82
2022/02/28 10:29:55;;;;;;;;;;;;;;;;;;5058900;28;19959;-82
2022/02/28 10:32:25;;;;;;;;;;;;;;;;;;5065991;28;19928;-83
2022/02/28 10:37:43;;;;;;;;;;;;;;;;;;5058998;28;19975;-82
2022/02/28 10:40:08;;;;;;;;;;;;;;;;;;5060972;28;20289;-83
2022/02/28 10:42:47;;;;;;;;;;;;;;;;;;5060492;28;19929;-82
2022/02/28 10:45:24;;;;;;;;;;;;;;;;;;5071292;28;19970;-81
2022/02/28 10:47:52;;;;;;;;;;;;;;;;;;5070663;28;19916;-81
2022/02/28 10:50:38;;;;;;;;;;;;;;;;;;5059416;28;20007;-81
2022/02/28 10:53:04;;;;;;;;;;;;;;;;;;5069108;28;19924;-80
2022/02/28 10:55:33;;;;;;;;;;;;;;;;;;5059689;28;19923;-83
2022/02/28 10:58:05;;;;;;;;;;;;;;;;;;5067899;28;19920;-81
2022/02/28 11:00:30;;;;;;;;;;;;;;;;;;5058000;28;19924;-80
2022/02/28 11:03:02;;;;;;;;;;;;;;;;;;5073048;28;19916;-80
2022/02/28 11:05:27;;;;;;;;;;;;;;;;;;5075238;28;19927;-82
2022/02/28 11:07:53;;;;;;;;;;;;;;;;;;5058052;28;19917;-81
2022/02/28 11:10:19;;;;;;;;;;;;;;;;;;5068765;28;19966;-81
2022/02/28 11:12:45;;;;;;;;;;;;;;;;;;5069670;28;19924;-80
2022/02/28 11:15:15;;;;;;;;;;;;;;;;;;5059115;28;19975;-81
2022/02/28 11:17:43;;;;;;;;;;;;;;;;;;5062919;28;19928;-80
2022/02/28 11:20:14;;;;;;;;;;;;;;;;;;5060787;28;19924;-83
2022/02/28 11:22:40;;;;;;;;;;;;;;;;;;5063995;28;19921;-80
2022/02/28 11:25:09;;;;;;;;;;;;;;;;;;5060926;28;19945;-81
2022/02/28 11:27:34;;;;;;;;;;;;;;;;;;5061761;28;20003;-82
2022/02/28 11:30:05;;;;;;;;;;;;;;;;;;5056694;28;20029;-81
2022/02/28 11:32:31;;;;;;;;;;;;;;;;;;5064373;28;20089;-82
2022/02/28 11:35:16;;;;;;;;;;;;;;;;;;5057912;28;20372;-81
2022/02/28 11:37:41;;;;;;;;;;;;;;;;;;5060969;28;19920;-82
2022/02/28 11:40:07;;;;;;;;;;;;;;;;;;5058926;28;19986;-79
2022/02/28 11:42:51;;;;;;;;;;;;;;;;;;5051737;28;19951;-83
2022/02/28 11:45:21;;;;;;;;;;;;;;;;;;5062645;28;20003;-81
2022/02/28 11:47:46;;;;;;;;;;;;;;;;;;5061676;28;19920;-81
2022/02/28 11:50:15;;;;;;;;;;;;;;;;;;5063280;28;20280;-81
2022/02/28 11:52:40;;;;;;;;;;;;;;;;;;5068818;28;19928;-81
2022/02/28 11:55:06;;;;;;;;;;;;;;;;;;5058850;28;19917;-82
2022/02/28 11:57:48;;;;;;;;;;;;;;;;;;5061071;28;19921;-80
2022/02/28 12:00:13;;;;;;;;;;;;;;;;;;5068185;28;19924;-79
2022/02/28 12:02:39;;;;;;;;;;;;;;;;;;5063657;28;19920;-81
2022/02/28 12:05:24;;;;;;;;;;;;;;;;;;5062723;28;19928;-84
2022/02/28 12:07:50;;;;;;;;;;;;;;;;;;5059953;28;19939;-81
2022/02/28 12:10:17;;;;;;;;;;;;;;;;;;5059090;28;19939;-82
2022/02/28 12:12:55;;;;;;;;;;;;;;;;;;5054792;28;19924;-81
2022/02/28 12:15:22;;;;;;;;;;;;;;;;;;5056668;28;20385;-80
2022/02/28 12:17:47;;;;;;;;;;;;;;;;;;5062741;28;19988;-79
2022/02/28 12:20:32;;;;;;;;;;;;;;;;;;5064295;28;19925;-79
2022/02/28 12:23:09;;;;;;;;;;;;;;;;;;5060465;28;20467;-78
2022/02/28 12:25:58;;;;;;;;;;;;;;;;;;5062878;28;19920;-82
2022/02/28 12:28:26;;;;;;;;;;;;;;;;;;5056978;28;20350;-79
2022/02/28 12:30:54;;;;;;;;;;;;;;;;;;5055020;28;20027;-83
2022/02/28 12:33:24;;;;;;;;;;;;;;;;;;5059866;28;19929;-82
2022/02/28 12:35:49;;;;;;;;;;;;;;;;;;5058201;28;19924;-79
2022/02/28 12:38:15;;;;;;;;;;;;;;;;;;5056891;28;19921;-80
2022/02/28 12:40:54;;;;;;;;;;;;;;;;;;5070878;28;19981;-77
2022/02/28 12:43:20;;;;;;;;;;;;;;;;;;5072424;28;19923;-78
2022/02/28 12:45:50;;;;;;;;;;;;;;;;;;5074462;28;19916;-79
2022/02/28 12:48:16;;;;;;;;;;;;;;;;;;5059456;28;19928;-77
2022/02/28 12:50:49;;;;;;;;;;;;;;;;;;5059435;28;19920;-81
2022/02/28 12:53:16;;;;;;;;;;;;;;;;;;5060996;28;19978;-79
2022/02/28 12:55:55;;;;;;;;;;;;;;;;;;5073638;28;19929;-79
2022/02/28 12:58:23;;;;;;;;;;;;;;;;;;5075407;28;19925;-79
2022/02/28 13:00:49;;;;;;;;;;;;;;;;;;5077843;28;20384;-81
2022/02/28 13:03:14;;;;;;;;;;;;;;;;;;5088867;28;19916;-78
2022/02/28 13:05:40;;;;;;;;;;;;;;;;;;5078169;28;19963;-79
2022/02/28 13:08:06;;;;;;;;;;;;;;;;;;5080576;28;19920;-79
2022/02/28 13:10:31;;;;;;;;;;;;;;;;;;5079317;28;19929;-78
2022/02/28 13:12:57;;;;;;;;;;;;;;;;;;5078189;28;19920;-79
2022/02/28 13:15:22;;;;;;;;;;;;;;;;;;5073964;28;19925;-79
2022/02/28 13:17:48;;;;;;;;;;;;;;;;;;5080039;28;19927;-78
2022/02/28 13:20:14;;;;;;;;;;;;;;;;;;5077154;28;19925;-77
2022/02/28 13:22:40;;;;;;;;;;;;;;;;;;5082210;28;20363;-81
2022/02/28 13:25:05;;;;;;;;;;;;;;;;;;5080989;28;20003;-79
2022/02/28 13:27:31;;;;;;;;;;;;;;;;;;5076855;28;19928;-78
2022/02/28 13:29:57;;;;;;;;;;;;;;;;;;5084828;28;19982;-80
2022/02/28 13:32:24;;;;;;;;;;;;;;;;;;5082201;28;20369;-79
2022/02/28 13:34:54;;;;;;;;;;;;;;;;;;5086061;28;19920;-80
2022/02/28 13:37:20;;;;;;;;;;;;;;;;;;5080060;28;19917;-79
2022/02/28 13:39:46;;;;;;;;;;;;;;;;;;5070277;28;19916;-78
2022/02/28 13:42:11;;;;;;;;;;;;;;;;;;5070130;28;19969;-78
2022/02/28 13:44:38;;;;;;;;;;;;;;;;;;5070094;28;20292;-79
2022/02/28 13:47:05;;;;;;;;;;;;;;;;;;5067489;28;19924;-80
2022/02/28 13:49:33;;;;;;;;;;;;;;;;;;5076151;28;20003;-80
2022/02/28 13:51:59;;;;;;;;;;;;;;;;;;5086814;28;19928;-78
2022/02/28 13:54:24;;;;;;;;;;;;;;;;;;5098881;28;19943;-78
2022/02/28 13:56:50;;;;;;;;;;;;;;;;;;5107727;28;19930;-79
2022/02/28 13:59:16;;;;;;;;;;;;;;;;;;5097138;28;19927;-79
2022/02/28 14:01:49;;;;;;;;;;;;;;;;;;5107873;28;19920;-79
2022/02/28 14:04:14;;;;;;;;;;;;;;;;;;5096717;28;20283;-80
2022/02/28 14:06:40;;;;;;;;;;;;;;;;;;5088687;28;19920;-79
2022/02/28 14:09:05;;;;;;;;;;;;;;;;;;5087194;28;19927;-78
2022/02/28 14:11:32;;;;;;;;;;;;;;;;;;5080242;28;19916;-80
2022/02/28 14:13:57;;;;;;;;;;;;;;;;;;5091862;28;19920;-78
2022/02/28 14:16:30;;;;;;;;;;;;;;;;;;5089010;28;20034;-80
2022/02/28 14:18:59;;;;;;;;;;;;;;;;;;5090887;28;19916;-78
2022/02/28 14:21:27;;;;;;;;;;;;;;;;;;5089844;28;19959;-78
2022/02/28 14:23:53;;;;;;;;;;;;;;;;;;5093090;28;19928;-79
2022/02/28 14:26:19;;;;;;;;;;;;;;;;;;5085130;28;19924;-82
2022/02/28 14:28:45;;;;;;;;;;;;;;;;;;5081844;28;19916;-80
2022/02/28 14:31:15;;;;;;;;;;;;;;;;;;5085115;28;19925;-83
2022/02/28 14:33:45;;;;;;;;;;;;;;;;;;5084493;28;20383;-86
2022/02/28 14:36:10;;;;;;;;;;;;;;;;;;5088284;28;19920;-85
2022/02/28 14:38:36;;;;;;;;;;;;;;;;;;5096106;28;19938;-80
2022/02/28 14:41:05;;;;;;;;;;;;;;;;;;5095112;28;19920;-78
2022/02/28 14:43:30;;;;;;;;;;;;;;;;;;5096238;28;20334;-79
2022/02/28 14:45:56;;;;;;;;;;;;;;;;;;5094903;28;19920;-77
2022/02/28 14:48:21;;;;;;;;;;;;;;;;;;5095865;28;19963;-81
2022/02/28 14:50:47;;;;;;;;;;;;;;;;;;5095533;28;19946;-80
2022/02/28 14:53:12;;;;;;;;;;;;;;;;;;5077992;28;19921;-78
2022/02/28 14:55:38;;;;;;;;;;;;;;;;;;5089865;28;19958;-79
2022/02/28 14:58:04;;;;;;;;;;;;;;;;;;5094002;28;19920;-80
2022/02/28 15:00:29;;;;;;;;;;;;;;;;;;5091307;28;19916;-78
2022/02/28 15:02:55;;;;;;;;;;;;;;;;;;5094747;28;20018;-79
2022/02/28 15:05:21;;;;;;;;;;;;;;;;;;5092061;28;20360;-82
2022/02/28 15:07:47;;;;;;;;;;;;;;;;;;5089389;28;19920;-80
2022/02/28 15:10:13;;;;;;;;;;;;;;;;;;5077304;28;19920;-80
2022/02/28 15:12:38;;;;;;;;;;;;;;;;;;5095400;28;20007;-78
2022/02/28 15:15:04;;;;;;;;;;;;;;;;;;5095351;28;20348;-78
2022/02/28 15:17:30;;;;;;;;;;;;;;;;;;5094846;28;19946;-79
2022/02/28 15:19:55;;;;;;;;;;;;;;;;;;5095360;28;19923;-80
2022/02/28 15:22:20;;;;;;;;;;;;;;;;;;5095198;28;19916;-79
2022/02/28 15:24:46;;;;;;;;;;;;;;;;;;5095175;28;19916;-78
2022/02/28 15:27:11;;;;;;;;;;;;;;;;;;5095488;28;20001;-82
2022/02/28 15:29:37;;;;;;;;;;;;;;;;;;5095240;28;19920;-81
2022/02/28 15:32:03;;;;;;;;;;;;;;;;;;5095044;28;19916;-84
2022/02/28 15:34:28;;;;;;;;;;;;;;;;;;5094915;28;19916;-85
2022/02/28 15:36:54;;;;;;;;;;;;;;;;;;5094949;28;19916;-81
2022/02/28 15:39:19;;;;;;;;;;;;;;;;;;5093025;28;19920;-80
2022/02/28 15:41:45;;;;;;;;;;;;;;;;;;5083171;28;20360;-79
2022/02/28 15:44:10;;;;;;;;;;;;;;;;;;5074547;28;19917;-78
2022/02/28 15:46:36;;;;;;;;;;;;;;;;;;5088897;28;19927;-81
2022/02/28 15:49:02;;;;;;;;;;;;;;;;;;5076158;28;19923;-81
2022/02/28 15:51:27;;;;;;;;;;;;;;;;;;5074583;28;20326;-80
2022/02/28 15:53:53;;;;;;;;;;;;;;;;;;5074135;28;19946;-79
2022/02/28 15:56:18;;;;;;;;;;;;;;;;;;5074295;28;20030;-79
2022/02/28 15:58:44;;;;;;;;;;;;;;;;;;5089882;28;20404;-80
2022/02/28 16:01:09;;;;;;;;;;;;;;;;;;5091711;28;20008;-81
2022/02/28 16:03:35;;;;;;;;;;;;;;;;;;5094593;28;20355;-78
2022/02/28 16:06:01;;;;;;;;;;;;;;;;;;5087048;28;20372;-78
2022/02/28 16:08:26;;;;;;;;;;;;;;;;;;5092208;28;19916;-78
2022/02/28 16:10:53;;;;;;;;;;;;;;;;;;5093418;28;20364;-75
2022/02/28 16:13:19;;;;;;;;;;;;;;;;;;5093539;28;19951;-82
2022/02/28 16:15:44;;;;;;;;;;;;;;;;;;5094131;28;19939;-80
2022/02/28 16:18:10;;;;;;;;;;;;;;;;;;5093727;28;20371;-85
2022/02/28 16:20:35;;;;;;;;;;;;;;;;;;5088130;28;19989;-77
2022/02/28 16:23:01;;;;;;;;;;;;;;;;;;5084772;28;20007;-80
2022/02/28 16:25:28;;;;;;;;;;;;;;;;;;5080002;28;19916;-80
2022/02/28 16:27:53;;;;;;;;;;;;;;;;;;5093317;28;19920;-80
2022/02/28 16:30:20;;;;;;;;;;;;;;;;;;5089255;28;19968;-82
2022/02/28 16:32:46;;;;;;;;;;;;;;;;;;5091046;28;20364;-88
2022/02/28 16:35:11;;;;;;;;;;;;;;;;;;5092064;28;19917;-80
2022/02/28 16:37:36;;;;;;;;;;;;;;;;;;5090775;28;19920;-80
2022/02/28 16:40:06;;;;;;;;;;;;;;;;;;5092810;28;19912;-80
2022/02/28 16:42:31;;;;;;;;;;;;;;;;;;5092576;28;19942;-79